sensor_id;sensor_type;location;lat;lon;timestamp;temperature;humidity
56436;DHT22;42335;44.872;20.658;2024-02-16T00:01:18;153.60;2252.80
56436;DHT22;42335;44.872;20.658;2024-02-16T00:03:44;153.60;2252.80
56436;DHT22;42335;44.872;20.658;2024-02-16T00:06:11;128.90;2252.80
56436;DHT22;42335;44.872;20.658;2024-02-16T00:08:37;128.90;2252.80
56436;DHT22;42335;44.872;20.658;2024-02-16T00:11:04;128.90;2252.80
56436;DHT22;42335;44.872;20.658;2024-02-16T00:13:30;153.60;2252.80
56436;DHT22;42335;44.872;20.658;2024-02-16T00:15:56;128.80;2252.80
56436;DHT22;42335;44.872;20.658;2024-02-16T00:18:23;128.80;2252.80
56436;DHT22;42335;44.872;20.658;2024-02-16T00:20:49;128.70;2252.80
56436;DHT22;42335;44.872;20.658;2024-02-16T00:23:15;128.60;2252.80
56436;DHT22;42335;44.872;20.658;2024-02-16T00:25:41;128.60;2252.80
56436;DHT22;42335;44.872;20.658;2024-02-16T00:28:08;128.50;2252.80
56436;DHT22;42335;44.872;20.658;2024-02-16T00:30:34;128.40;2252.80
56436;DHT22;42335;44.872;20.658;2024-02-16T00:32:59;128.40;2252.80
56436;DHT22;42335;44.872;20.658;2024-02-16T00:35:26;128.40;2252.80
56436;DHT22;42335;44.872;20.658;2024-02-16T00:37:52;128.30;2252.80
56436;DHT22;42335;44.872;20.658;2024-02-16T00:40:18;128.20;2252.80
56436;DHT22;42335;44.872;20.658;2024-02-16T00:42:43;128.20;2252.80
56436;DHT22;42335;44.872;20.658;2024-02-16T00:45:09;128.20;2252.80
56436;DHT22;42335;44.872;20.658;2024-02-16T00:47:35;128.20;2252.80
56436;DHT22;42335;44.872;20.658;2024-02-16T00:50:01;128.10;2252.80
56436;DHT22;42335;44.872;20.658;2024-02-16T00:52:27;128.00;2252.80
56436;DHT22;42335;44.872;20.658;2024-02-16T00:54:52;128.00;2252.80
56436;DHT22;42335;44.872;20.658;2024-02-16T00:57:18;128.00;2252.80
56436;DHT22;42335;44.872;20.658;2024-02-16T00:59:44;128.00;2252.80
56436;DHT22;42335;44.872;20.658;2024-02-16T01:02:09;103.30;2227.20
56436;DHT22;42335;44.872;20.658;2024-02-16T01:04:37;103.30;2227.20
56436;DHT22;42335;44.872;20.658;2024-02-16T01:07:03;103.30;2227.20
56436;DHT22;42335;44.872;20.658;2024-02-16T01:09:28;103.30;2227.20
56436;DHT22;42335;44.872;20.658;2024-02-16T01:11:54;103.30;2227.20
56436;DHT22;42335;44.872;20.658;2024-02-16T01:14:20;103.30;2227.20
56436;DHT22;42335;44.872;20.658;2024-02-16T01:16:46;103.30;2227.20
56436;DHT22;42335;44.872;20.658;2024-02-16T01:19:12;103.30;2227.20
56436;DHT22;42335;44.872;20.658;2024-02-16T01:21:38;103.30;2227.20
56436;DHT22;42335;44.872;20.658;2024-02-16T01:24:04;103.30;2227.20
56436;DHT22;42335;44.872;20.658;2024-02-16T01:26:31;103.30;2227.20
56436;DHT22;42335;44.872;20.658;2024-02-16T01:28:58;103.30;2227.20
56436;DHT22;42335;44.872;20.658;2024-02-16T01:31:23;103.30;2227.20
56436;DHT22;42335;44.872;20.658;2024-02-16T01:33:49;128.00;2252.80
56436;DHT22;42335;44.872;20.658;2024-02-16T01:36:15;103.30;2227.20
56436;DHT22;42335;44.872;20.658;2024-02-16T01:38:40;103.30;2227.20
56436;DHT22;42335;44.872;20.658;2024-02-16T01:41:06;103.20;2227.20
56436;DHT22;42335;44.872;20.658;2024-02-16T01:43:34;103.20;2227.20
56436;DHT22;42335;44.872;20.658;2024-02-16T01:46:00;103.20;2227.20
56436;DHT22;42335;44.872;20.658;2024-02-16T01:48:26;103.20;2227.20
56436;DHT22;42335;44.872;20.658;2024-02-16T01:50:53;103.10;2227.20
56436;DHT22;42335;44.872;20.658;2024-02-16T01:53:20;103.10;2227.20
56436;DHT22;42335;44.872;20.658;2024-02-16T01:55:47;103.00;2227.20
56436;DHT22;42335;44.872;20.658;2024-02-16T01:58:13;103.00;2227.20
56436;DHT22;42335;44.872;20.658;2024-02-16T02:00:40;103.00;2227.20
56436;DHT22;42335;44.872;20.658;2024-02-16T02:03:06;103.10;2227.20
56436;DHT22;42335;44.872;20.658;2024-02-16T02:05:32;103.00;2227.20
56436;DHT22;42335;44.872;20.658;2024-02-16T02:07:58;103.10;2227.20
56436;DHT22;42335;44.872;20.658;2024-02-16T02:10:24;103.10;2227.20
56436;DHT22;42335;44.872;20.658;2024-02-16T02:12:50;103.10;2227.20
56436;DHT22;42335;44.872;20.658;2024-02-16T02:15:16;103.10;2227.20
56436;DHT22;42335;44.872;20.658;2024-02-16T02:17:41;103.20;2227.20
56436;DHT22;42335;44.872;20.658;2024-02-16T02:20:08;103.10;2227.20
56436;DHT22;42335;44.872;20.658;2024-02-16T02:22:39;103.10;2227.20
56436;DHT22;42335;44.872;20.658;2024-02-16T02:25:05;102.90;2227.20
56436;DHT22;42335;44.872;20.658;2024-02-16T02:27:31;102.80;2227.20
56436;DHT22;42335;44.872;20.658;2024-02-16T02:29:57;102.80;2227.20
56436;DHT22;42335;44.872;20.658;2024-02-16T02:32:24;102.70;2227.20
56436;DHT22;42335;44.872;20.658;2024-02-16T02:34:49;102.60;2227.20
56436;DHT22;42335;44.872;20.658;2024-02-16T02:37:15;102.50;2227.20
56436;DHT22;42335;44.872;20.658;2024-02-16T02:39:41;102.50;2227.20
56436;DHT22;42335;44.872;20.658;2024-02-16T02:42:07;102.50;2227.20
56436;DHT22;42335;44.872;20.658;2024-02-16T02:44:34;77.70;2227.20
56436;DHT22;42335;44.872;20.658;2024-02-16T02:47:00;77.70;2227.20
56436;DHT22;42335;44.872;20.658;2024-02-16T02:49:26;77.70;2227.20
56436;DHT22;42335;44.872;20.658;2024-02-16T02:51:53;77.70;2227.20
56436;DHT22;42335;44.872;20.658;2024-02-16T02:54:19;77.70;2227.20
56436;DHT22;42335;44.872;20.658;2024-02-16T02:56:45;77.60;2227.20
56436;DHT22;42335;44.872;20.658;2024-02-16T02:59:11;77.70;2227.20
56436;DHT22;42335;44.872;20.658;2024-02-16T03:01:37;77.60;2227.20
56436;DHT22;42335;44.872;20.658;2024-02-16T03:04:03;77.60;2227.20
56436;DHT22;42335;44.872;20.658;2024-02-16T03:06:29;77.60;2227.20
56436;DHT22;42335;44.872;20.658;2024-02-16T03:08:55;77.60;2227.20
56436;DHT22;42335;44.872;20.658;2024-02-16T03:11:21;77.60;2227.20
56436;DHT22;42335;44.872;20.658;2024-02-16T03:13:47;77.50;2227.20
56436;DHT22;42335;44.872;20.658;2024-02-16T03:16:13;77.50;2227.20
56436;DHT22;42335;44.872;20.658;2024-02-16T03:18:39;77.50;2227.20
56436;DHT22;42335;44.872;20.658;2024-02-16T03:21:05;77.50;2227.20
56436;DHT22;42335;44.872;20.658;2024-02-16T03:23:31;77.40;2227.20
56436;DHT22;42335;44.872;20.658;2024-02-16T03:25:57;77.40;2227.20
56436;DHT22;42335;44.872;20.658;2024-02-16T03:28:22;77.40;2227.20
56436;DHT22;42335;44.872;20.658;2024-02-16T03:30:48;77.40;2227.20
56436;DHT22;42335;44.872;20.658;2024-02-16T03:33:14;77.40;2227.20
56436;DHT22;42335;44.872;20.658;2024-02-16T03:35:40;77.40;2227.20
56436;DHT22;42335;44.872;20.658;2024-02-16T03:38:06;77.30;2227.20
56436;DHT22;42335;44.872;20.658;2024-02-16T03:40:32;77.30;2227.20
56436;DHT22;42335;44.872;20.658;2024-02-16T03:42:58;77.20;2227.20
56436;DHT22;42335;44.872;20.658;2024-02-16T03:45:25;77.20;2227.20
56436;DHT22;42335;44.872;20.658;2024-02-16T03:47:52;77.10;2227.20
56436;DHT22;42335;44.872;20.658;2024-02-16T03:50:19;77.10;2227.20
56436;DHT22;42335;44.872;20.658;2024-02-16T03:52:45;77.10;2227.20
56436;DHT22;42335;44.872;20.658;2024-02-16T03:55:10;76.90;2227.20
56436;DHT22;42335;44.872;20.658;2024-02-16T03:57:37;76.90;2227.20
56436;DHT22;42335;44.872;20.658;2024-02-16T04:00:03;76.80;2227.20
56436;DHT22;42335;44.872;20.658;2024-02-16T04:02:31;76.90;2227.20
56436;DHT22;42335;44.872;20.658;2024-02-16T04:04:57;52.00;2227.20
56436;DHT22;42335;44.872;20.658;2024-02-16T04:07:23;76.80;2227.20
56436;DHT22;42335;44.872;20.658;2024-02-16T04:09:49;52.10;2227.20
56436;DHT22;42335;44.872;20.658;2024-02-16T04:12:15;52.10;2227.20
56436;DHT22;42335;44.872;20.658;2024-02-16T04:14:41;52.10;2227.20
56436;DHT22;42335;44.872;20.658;2024-02-16T04:17:09;52.00;2227.20
56436;DHT22;42335;44.872;20.658;2024-02-16T04:19:38;52.00;2227.20
56436;DHT22;42335;44.872;20.658;2024-02-16T04:22:04;52.00;2227.20
56436;DHT22;42335;44.872;20.658;2024-02-16T04:24:29;52.00;2227.20
56436;DHT22;42335;44.872;20.658;2024-02-16T04:26:55;52.00;2227.20
56436;DHT22;42335;44.872;20.658;2024-02-16T04:29:21;52.00;2227.20
56436;DHT22;42335;44.872;20.658;2024-02-16T04:31:47;52.00;2227.20
56436;DHT22;42335;44.872;20.658;2024-02-16T04:34:14;52.00;2227.20
56436;DHT22;42335;44.872;20.658;2024-02-16T04:36:40;52.00;2227.20
56436;DHT22;42335;44.872;20.658;2024-02-16T04:39:06;51.90;2227.20
56436;DHT22;42335;44.872;20.658;2024-02-16T04:41:32;51.90;2227.20
56436;DHT22;42335;44.872;20.658;2024-02-16T04:43:57;51.80;2227.20
56436;DHT22;42335;44.872;20.658;2024-02-16T04:46:23;51.80;2227.20
56436;DHT22;42335;44.872;20.658;2024-02-16T04:48:49;51.80;2227.20
56436;DHT22;42335;44.872;20.658;2024-02-16T04:51:15;51.70;2227.20
56436;DHT22;42335;44.872;20.658;2024-02-16T04:53:41;51.60;2227.20
56436;DHT22;42335;44.872;20.658;2024-02-16T04:56:06;51.50;2227.20
56436;DHT22;42335;44.872;20.658;2024-02-16T04:58:32;51.50;2227.20
56436;DHT22;42335;44.872;20.658;2024-02-16T05:00:58;51.40;2227.20
56436;DHT22;42335;44.872;20.658;2024-02-16T05:03:24;51.40;2227.20
56436;DHT22;42335;44.872;20.658;2024-02-16T05:05:50;51.40;2227.20
56436;DHT22;42335;44.872;20.658;2024-02-16T05:08:17;51.30;2227.20
56436;DHT22;42335;44.872;20.658;2024-02-16T05:10:43;51.30;2227.20
56436;DHT22;42335;44.872;20.658;2024-02-16T05:13:09;51.30;2227.20
56436;DHT22;42335;44.872;20.658;2024-02-16T05:15:36;51.30;2227.20
56436;DHT22;42335;44.872;20.658;2024-02-16T05:18:02;51.30;2227.20
56436;DHT22;42335;44.872;20.658;2024-02-16T05:20:28;51.30;2227.20
56436;DHT22;42335;44.872;20.658;2024-02-16T05:22:54;51.30;2227.20
56436;DHT22;42335;44.872;20.658;2024-02-16T05:25:20;51.40;2227.20
56436;DHT22;42335;44.872;20.658;2024-02-16T05:27:46;51.40;2227.20
56436;DHT22;42335;44.872;20.658;2024-02-16T05:30:13;51.40;2227.20
56436;DHT22;42335;44.872;20.658;2024-02-16T05:32:41;51.40;2227.20
56436;DHT22;42335;44.872;20.658;2024-02-16T05:35:08;51.40;2227.20
56436;DHT22;42335;44.872;20.658;2024-02-16T05:37:47;51.40;2227.20
56436;DHT22;42335;44.872;20.658;2024-02-16T05:40:17;51.40;2227.20
56436;DHT22;42335;44.872;20.658;2024-02-16T05:42:57;51.30;2227.20
56436;DHT22;42335;44.872;20.658;2024-02-16T05:45:26;51.30;2227.20
56436;DHT22;42335;44.872;20.658;2024-02-16T05:47:54;51.30;2227.20
56436;DHT22;42335;44.872;20.658;2024-02-16T05:50:21;51.30;2227.20
56436;DHT22;42335;44.872;20.658;2024-02-16T05:52:48;51.30;2227.20
56436;DHT22;42335;44.872;20.658;2024-02-16T05:55:15;51.30;2227.20
56436;DHT22;42335;44.872;20.658;2024-02-16T05:57:41;51.30;2227.20
56436;DHT22;42335;44.872;20.658;2024-02-16T06:00:07;51.40;2227.20
56436;DHT22;42335;44.872;20.658;2024-02-16T06:02:36;51.40;2227.20
56436;DHT22;42335;44.872;20.658;2024-02-16T06:05:03;51.40;2227.20
56436;DHT22;42335;44.872;20.658;2024-02-16T06:07:29;51.40;2227.20
56436;DHT22;42335;44.872;20.658;2024-02-16T06:09:56;51.40;2227.20
56436;DHT22;42335;44.872;20.658;2024-02-16T06:12:22;51.50;2227.20
56436;DHT22;42335;44.872;20.658;2024-02-16T06:14:48;51.40;2227.20
56436;DHT22;42335;44.872;20.658;2024-02-16T06:17:14;51.60;2227.20
56436;DHT22;42335;44.872;20.658;2024-02-16T06:19:43;51.60;2227.20
56436;DHT22;42335;44.872;20.658;2024-02-16T06:22:09;51.60;2227.20
56436;DHT22;42335;44.872;20.658;2024-02-16T06:24:35;51.60;2227.20
56436;DHT22;42335;44.872;20.658;2024-02-16T06:27:01;51.80;2227.20
56436;DHT22;42335;44.872;20.658;2024-02-16T06:29:27;51.80;2227.20
56436;DHT22;42335;44.872;20.658;2024-02-16T06:31:53;51.80;2227.20
56436;DHT22;42335;44.872;20.658;2024-02-16T06:34:19;51.90;2227.20
56436;DHT22;42335;44.872;20.658;2024-02-16T06:36:45;51.90;2227.20
56436;DHT22;42335;44.872;20.658;2024-02-16T06:39:11;51.80;2227.20
56436;DHT22;42335;44.872;20.658;2024-02-16T06:41:42;51.90;2227.20
56436;DHT22;42335;44.872;20.658;2024-02-16T06:44:09;51.90;2227.20
56436;DHT22;42335;44.872;20.658;2024-02-16T06:46:35;52.00;2227.20
56436;DHT22;42335;44.872;20.658;2024-02-16T06:49:01;52.10;2227.20
56436;DHT22;42335;44.872;20.658;2024-02-16T06:51:27;76.80;2227.20
56436;DHT22;42335;44.872;20.658;2024-02-16T06:53:54;76.90;2227.20
56436;DHT22;42335;44.872;20.658;2024-02-16T06:56:20;77.00;2227.20
56436;DHT22;42335;44.872;20.658;2024-02-16T06:58:46;77.30;2227.20
56436;DHT22;42335;44.872;20.658;2024-02-16T07:01:13;77.70;2227.20
56436;DHT22;42335;44.872;20.658;2024-02-16T07:03:39;102.80;2227.20
56436;DHT22;42335;44.872;20.658;2024-02-16T07:06:06;103.00;2227.20
56436;DHT22;42335;44.872;20.658;2024-02-16T07:08:36;128.50;2252.80
56436;DHT22;42335;44.872;20.658;2024-02-16T07:11:01;154.10;2252.80
56436;DHT22;42335;44.872;20.658;2024-02-16T07:13:29;179.80;2252.80
56436;DHT22;42335;44.872;20.658;2024-02-16T07:18:21;307.90;1868.80
56436;DHT22;42335;44.872;20.658;2024-02-16T07:20:47;410.30;1510.40
56436;DHT22;42335;44.872;20.658;2024-02-16T07:23:13;461.60;1331.20
56436;DHT22;42335;44.872;20.658;2024-02-16T07:25:41;537.70;1203.20
56436;DHT22;42335;44.872;20.658;2024-02-16T07:28:08;588.80;1075.20
56436;DHT22;42335;44.872;20.658;2024-02-16T07:30:35;614.80;972.80
56436;DHT22;42335;44.872;20.658;2024-02-16T07:33:05;640.20;921.60
56436;DHT22;42335;44.872;20.658;2024-02-16T07:35:30;666.20;896.00
56436;DHT22;42335;44.872;20.658;2024-02-16T07:37:56;692.10;819.20
56436;DHT22;42335;44.872;20.658;2024-02-16T07:40:22;717.70;793.60
56436;DHT22;42335;44.872;20.658;2024-02-16T07:42:48;768.30;793.60
56436;DHT22;42335;44.872;20.658;2024-02-16T07:45:13;793.90;768.00
56436;DHT22;42335;44.872;20.658;2024-02-16T07:47:42;794.50;716.80
56436;DHT22;42335;44.872;20.658;2024-02-16T07:50:09;820.00;691.20
56436;DHT22;42335;44.872;20.658;2024-02-16T07:52:35;845.20;691.20
56436;DHT22;42335;44.872;20.658;2024-02-16T07:55:01;845.30;691.20
56436;DHT22;42335;44.872;20.658;2024-02-16T07:57:27;896.00;614.40
56436;DHT22;42335;44.872;20.658;2024-02-16T07:59:53;922.00;588.80
56436;DHT22;42335;44.872;20.658;2024-02-16T08:02:18;947.80;537.60
56436;DHT22;42335;44.872;20.658;2024-02-16T08:04:49;973.10;537.60
56436;DHT22;42335;44.872;20.658;2024-02-16T08:07:15;998.90;512.00
56436;DHT22;42335;44.872;20.658;2024-02-16T08:09:44;999.10;512.00
56436;DHT22;42335;44.872;20.658;2024-02-16T08:12:11;1024.40;486.40
56436;DHT22;42335;44.872;20.658;2024-02-16T08:14:39;999.20;512.00
56436;DHT22;42335;44.872;20.658;2024-02-16T08:17:06;1049.60;486.40
56436;DHT22;42335;44.872;20.658;2024-02-16T08:19:33;1050.40;486.40
56436;DHT22;42335;44.872;20.658;2024-02-16T08:22:03;1075.40;460.80
56436;DHT22;42335;44.872;20.658;2024-02-16T08:24:36;1100.90;460.80
56436;DHT22;42335;44.872;20.658;2024-02-16T08:27:02;1100.80;460.80
56436;DHT22;42335;44.872;20.658;2024-02-16T08:29:29;1101.00;460.80
56436;DHT22;42335;44.872;20.658;2024-02-16T08:31:56;1127.00;435.20
56436;DHT22;42335;44.872;20.658;2024-02-16T08:34:22;1152.60;409.60
56436;DHT22;42335;44.872;20.658;2024-02-16T08:36:49;1177.60;409.60
56436;DHT22;42335;44.872;20.658;2024-02-16T08:39:16;1152.70;409.60
56436;DHT22;42335;44.872;20.658;2024-02-16T08:41:43;1178.50;409.60
56436;DHT22;42335;44.872;20.658;2024-02-16T08:44:19;1203.60;435.20
56436;DHT22;42335;44.872;20.658;2024-02-16T08:46:45;1203.70;435.20
56436;DHT22;42335;44.872;20.658;2024-02-16T08:49:12;1229.20;460.80
56436;DHT22;42335;44.872;20.658;2024-02-16T08:51:37;1229.70;460.80
56436;DHT22;42335;44.872;20.658;2024-02-16T08:54:03;1255.30;486.40
56436;DHT22;42335;44.872;20.658;2024-02-16T08:56:30;1280.40;486.40
56436;DHT22;42335;44.872;20.658;2024-02-16T08:58:57;1280.20;486.40
56436;DHT22;42335;44.872;20.658;2024-02-16T09:01:37;1280.90;486.40
56436;DHT22;42335;44.872;20.658;2024-02-16T09:04:03;1306.20;486.40
56436;DHT22;42335;44.872;20.658;2024-02-16T09:06:29;1331.40;512.00
56436;DHT22;42335;44.872;20.658;2024-02-16T09:08:55;1331.60;512.00
56436;DHT22;42335;44.872;20.658;2024-02-16T09:11:22;1356.90;537.60
56436;DHT22;42335;44.872;20.658;2024-02-16T09:13:49;1357.40;537.60
56436;DHT22;42335;44.872;20.658;2024-02-16T09:16:15;1357.70;537.60
56436;DHT22;42335;44.872;20.658;2024-02-16T09:18:40;1382.80;563.20
56436;DHT22;42335;44.872;20.658;2024-02-16T09:21:06;1383.10;563.20
56436;DHT22;42335;44.872;20.658;2024-02-16T09:23:33;1383.30;563.20
56436;DHT22;42335;44.872;20.658;2024-02-16T09:25:59;1408.50;563.20
56436;DHT22;42335;44.872;20.658;2024-02-16T09:28:27;1408.50;563.20
56436;DHT22;42335;44.872;20.658;2024-02-16T09:30:54;1383.30;563.20
56436;DHT22;42335;44.872;20.658;2024-02-16T09:33:20;1408.90;563.20
56436;DHT22;42335;44.872;20.658;2024-02-16T09:35:47;1408.70;563.20
56436;DHT22;42335;44.872;20.658;2024-02-16T09:38:13;1433.70;588.80
56436;DHT22;42335;44.872;20.658;2024-02-16T09:40:39;1434.30;588.80
56436;DHT22;42335;44.872;20.658;2024-02-16T09:43:05;1434.30;588.80
56436;DHT22;42335;44.872;20.658;2024-02-16T09:45:32;1408.50;563.20
56436;DHT22;42335;44.872;20.658;2024-02-16T09:47:59;1433.70;588.80
56436;DHT22;42335;44.872;20.658;2024-02-16T09:50:25;1434.30;588.80
56436;DHT22;42335;44.872;20.658;2024-02-16T09:52:52;1459.50;614.40
56436;DHT22;42335;44.872;20.658;2024-02-16T09:55:19;1460.10;614.40
56436;DHT22;42335;44.872;20.658;2024-02-16T09:57:44;1485.30;640.00
56436;DHT22;42335;44.872;20.658;2024-02-16T10:00:11;1485.30;640.00
56436;DHT22;42335;44.872;20.658;2024-02-16T10:02:46;1459.50;614.40
56436;DHT22;42335;44.872;20.658;2024-02-16T10:05:15;1484.80;640.00
56436;DHT22;42335;44.872;20.658;2024-02-16T10:07:42;1485.70;640.00
56436;DHT22;42335;44.872;20.658;2024-02-16T10:10:26;1510.70;640.00
56436;DHT22;42335;44.872;20.658;2024-02-16T10:13:06;1511.10;640.00
56436;DHT22;42335;44.872;20.658;2024-02-16T10:15:34;1511.30;640.00
56436;DHT22;42335;44.872;20.658;2024-02-16T10:18:06;1511.30;640.00
56436;DHT22;42335;44.872;20.658;2024-02-16T10:20:33;1511.30;640.00
56436;DHT22;42335;44.872;20.658;2024-02-16T10:23:06;1511.10;640.00
56436;DHT22;42335;44.872;20.658;2024-02-16T10:25:33;1485.30;640.00
56436;DHT22;42335;44.872;20.658;2024-02-16T10:28:05;1485.70;640.00
56436;DHT22;42335;44.872;20.658;2024-02-16T10:30:36;1485.30;640.00
56436;DHT22;42335;44.872;20.658;2024-02-16T10:33:03;1485.70;640.00
56436;DHT22;42335;44.872;20.658;2024-02-16T10:35:30;1485.20;640.00
56436;DHT22;42335;44.872;20.658;2024-02-16T10:37:56;1511.30;640.00
56436;DHT22;42335;44.872;20.658;2024-02-16T10:40:23;1511.30;640.00
56436;DHT22;42335;44.872;20.658;2024-02-16T10:42:50;1511.30;640.00
56436;DHT22;42335;44.872;20.658;2024-02-16T10:45:17;1511.30;640.00
56436;DHT22;42335;44.872;20.658;2024-02-16T10:47:44;1511.30;640.00
56436;DHT22;42335;44.872;20.658;2024-02-16T10:50:12;1511.30;640.00
56436;DHT22;42335;44.872;20.658;2024-02-16T10:52:41;1511.30;640.00
56436;DHT22;42335;44.872;20.658;2024-02-16T10:55:08;1511.30;640.00
56436;DHT22;42335;44.872;20.658;2024-02-16T10:57:39;1511.30;640.00
56436;DHT22;42335;44.872;20.658;2024-02-16T11:00:09;1511.30;640.00
56436;DHT22;42335;44.872;20.658;2024-02-16T11:02:58;1511.30;640.00
56436;DHT22;42335;44.872;20.658;2024-02-16T11:05:51;1511.30;640.00
56436;DHT22;42335;44.872;20.658;2024-02-16T11:08:19;1511.30;640.00
56436;DHT22;42335;44.872;20.658;2024-02-16T11:10:59;1511.30;640.00
56436;DHT22;42335;44.872;20.658;2024-02-16T11:13:33;1511.30;640.00
56436;DHT22;42335;44.872;20.658;2024-02-16T11:15:59;1511.30;640.00
56436;DHT22;42335;44.872;20.658;2024-02-16T11:18:30;1511.30;640.00
56436;DHT22;42335;44.872;20.658;2024-02-16T11:21:03;1511.30;640.00
56436;DHT22;42335;44.872;20.658;2024-02-16T11:23:40;1511.30;640.00
56436;DHT22;42335;44.872;20.658;2024-02-16T11:26:10;1511.30;640.00
56436;DHT22;42335;44.872;20.658;2024-02-16T11:28:42;1511.30;640.00
56436;DHT22;42335;44.872;20.658;2024-02-16T11:31:08;1510.50;640.00
56436;DHT22;42335;44.872;20.658;2024-02-16T11:33:34;1536.00;128.00
56436;DHT22;42335;44.872;20.658;2024-02-16T11:36:03;1511.30;640.00
56436;DHT22;42335;44.872;20.658;2024-02-16T11:38:34;1511.30;640.00
56436;DHT22;42335;44.872;20.658;2024-02-16T11:41:02;1511.30;640.00
56436;DHT22;42335;44.872;20.658;2024-02-16T11:43:29;1511.30;640.00
56436;DHT22;42335;44.872;20.658;2024-02-16T11:45:55;1511.30;640.00
56436;DHT22;42335;44.872;20.658;2024-02-16T11:48:27;1511.30;640.00
56436;DHT22;42335;44.872;20.658;2024-02-16T11:51:01;1511.30;640.00
56436;DHT22;42335;44.872;20.658;2024-02-16T11:53:28;1511.10;640.00
56436;DHT22;42335;44.872;20.658;2024-02-16T11:55:54;1511.10;640.00
56436;DHT22;42335;44.872;20.658;2024-02-16T11:58:20;1511.10;640.00
56436;DHT22;42335;44.872;20.658;2024-02-16T12:00:48;1511.30;640.00
56436;DHT22;42335;44.872;20.658;2024-02-16T12:03:26;1511.10;640.00
56436;DHT22;42335;44.872;20.658;2024-02-16T12:05:59;1511.30;640.00
56436;DHT22;42335;44.872;20.658;2024-02-16T12:08:31;1511.10;640.00
56436;DHT22;42335;44.872;20.658;2024-02-16T12:10:58;1510.70;640.00
56436;DHT22;42335;44.872;20.658;2024-02-16T12:13:23;1510.50;640.00
56436;DHT22;42335;44.872;20.658;2024-02-16T12:15:50;1484.80;640.00
56436;DHT22;42335;44.872;20.658;2024-02-16T12:18:27;1434.30;588.80
56436;DHT22;42335;44.872;20.658;2024-02-16T12:21:00;1229.50;460.80
56436;DHT22;42335;44.872;20.658;2024-02-16T12:23:27;1075.70;358.40
56436;DHT22;42335;44.872;20.658;2024-02-16T12:25:53;973.30;384.00
56436;DHT22;42335;44.872;20.658;2024-02-16T12:30:48;845.40;486.40
56436;DHT22;42335;44.872;20.658;2024-02-16T12:33:14;794.20;512.00
56436;DHT22;42335;44.872;20.658;2024-02-16T12:35:40;768.60;537.60
56436;DHT22;42335;44.872;20.658;2024-02-16T12:38:06;742.80;563.20
56436;DHT22;42335;44.872;20.658;2024-02-16T12:40:33;717.40;588.80
56436;DHT22;42335;44.872;20.658;2024-02-16T12:42:59;716.80;614.40
56436;DHT22;42335;44.872;20.658;2024-02-16T12:45:25;691.90;588.80
56436;DHT22;42335;44.872;20.658;2024-02-16T12:47:50;666.20;640.00
56436;DHT22;42335;44.872;20.658;2024-02-16T12:50:16;665.90;665.60
56436;DHT22;42335;44.872;20.658;2024-02-16T12:52:43;640.70;665.60
56436;DHT22;42335;44.872;20.658;2024-02-16T12:55:09;640.80;640.00
56436;DHT22;42335;44.872;20.658;2024-02-16T12:57:38;640.20;665.60
56436;DHT22;42335;44.872;20.658;2024-02-16T13:00:05;640.10;665.60
56436;DHT22;42335;44.872;20.658;2024-02-16T13:02:31;640.00;665.60
56436;DHT22;42335;44.872;20.658;2024-02-16T13:04:57;614.80;691.20
56436;DHT22;42335;44.872;20.658;2024-02-16T13:07:24;614.50;691.20
56436;DHT22;42335;44.872;20.658;2024-02-16T13:09:49;589.70;691.20
56436;DHT22;42335;44.872;20.658;2024-02-16T13:12:19;589.60;716.80
56436;DHT22;42335;44.872;20.658;2024-02-16T13:14:48;589.60;716.80
56436;DHT22;42335;44.872;20.658;2024-02-16T13:17:14;589.00;742.40
56436;DHT22;42335;44.872;20.658;2024-02-16T13:19:40;589.00;742.40
56436;DHT22;42335;44.872;20.658;2024-02-16T13:22:06;564.10;742.40
56436;DHT22;42335;44.872;20.658;2024-02-16T13:24:31;563.70;768.00
56436;DHT22;42335;44.872;20.658;2024-02-16T13:26:59;563.70;768.00
56436;DHT22;42335;44.872;20.658;2024-02-16T13:29:24;563.50;768.00
56436;DHT22;42335;44.872;20.658;2024-02-16T13:31:50;563.30;768.00
56436;DHT22;42335;44.872;20.658;2024-02-16T13:34:16;538.50;742.40
56436;DHT22;42335;44.872;20.658;2024-02-16T13:36:42;538.30;768.00
56436;DHT22;42335;44.872;20.658;2024-02-16T13:39:07;538.40;742.40
56436;DHT22;42335;44.872;20.658;2024-02-16T13:41:34;538.40;768.00
56436;DHT22;42335;44.872;20.658;2024-02-16T13:44:00;538.30;768.00
56436;DHT22;42335;44.872;20.658;2024-02-16T13:46:25;538.50;768.00
56436;DHT22;42335;44.872;20.658;2024-02-16T13:48:51;538.30;768.00
56436;DHT22;42335;44.872;20.658;2024-02-16T13:51:17;538.20;768.00
56436;DHT22;42335;44.872;20.658;2024-02-16T13:53:43;538.00;793.60
56436;DHT22;42335;44.872;20.658;2024-02-16T13:56:08;538.00;793.60
56436;DHT22;42335;44.872;20.658;2024-02-16T13:58:34;537.70;819.20
56436;DHT22;42335;44.872;20.658;2024-02-16T14:01:01;512.90;793.60
56436;DHT22;42335;44.872;20.658;2024-02-16T14:03:29;537.60;819.20
56436;DHT22;42335;44.872;20.658;2024-02-16T14:05:55;512.70;793.60
56436;DHT22;42335;44.872;20.658;2024-02-16T14:08:20;512.40;819.20
56436;DHT22;42335;44.872;20.658;2024-02-16T14:10:46;512.20;819.20
56436;DHT22;42335;44.872;20.658;2024-02-16T14:13:12;512.00;844.80
56436;DHT22;42335;44.872;20.658;2024-02-16T14:15:37;512.00;844.80
56436;DHT22;42335;44.872;20.658;2024-02-16T14:18:03;487.30;844.80
56436;DHT22;42335;44.872;20.658;2024-02-16T14:20:30;512.00;844.80
56436;DHT22;42335;44.872;20.658;2024-02-16T14:22:55;487.30;844.80
56436;DHT22;42335;44.872;20.658;2024-02-16T14:25:22;487.30;870.40
56436;DHT22;42335;44.872;20.658;2024-02-16T14:27:49;487.10;870.40
56436;DHT22;42335;44.872;20.658;2024-02-16T14:30:15;487.00;896.00
56436;DHT22;42335;44.872;20.658;2024-02-16T14:32:41;486.80;870.40
56436;DHT22;42335;44.872;20.658;2024-02-16T14:35:07;486.80;870.40
56436;DHT22;42335;44.872;20.658;2024-02-16T14:37:33;486.80;870.40
56436;DHT22;42335;44.872;20.658;2024-02-16T14:39:59;486.70;896.00
56436;DHT22;42335;44.872;20.658;2024-02-16T14:42:26;486.50;896.00
56436;DHT22;42335;44.872;20.658;2024-02-16T14:44:52;486.60;921.60